DMAD Reservoir




Date Reservoir Capacity (AF) Hourly Avg. Stream Stage (ft) Reservoir Outflow (cfs) Reservoir Gate 1 Height (ft) Reservoir Gate 2 Height (ft) Reservoir Gate 3 Height (ft) Stream Flow (cfs) Stream Conductivity (ppm) Battery Voltage (V) Reservoir Height (ft) Canal Flow (cfs) Canal Height (ft) Canal Flow 2 (ft)
09/01/2018 1,098 71 0.00 0.00 1.49 0.00 0.00 13.46 52.53 0.00 0.00
09/02/2018 1,098 24 0.00 0.00 0.51 0.00 0.00 13.29 52.53 0.00 0.00
09/03/2018 1,265 0 0.00 0.00 0.00 0.00 0.00 13.43 53.14 0.00 0.00
09/04/2018 1,595 0 0.00 0.00 0.00 0.00 0.00 13.41 54.22 0.00 0.00
09/05/2018 1,654 0 0.00 0.00 0.00 0.00 0.00 13.37 54.36 0.00 0.00
09/06/2018 1,692 0 0.00 0.00 0.00 0.00 0.00 13.43 54.45 0.00 0.00
09/07/2018 1,641 0 0.00 0.00 0.00 0.00 0.00 13.40 54.33 0.00 0.00
09/08/2018 1,663 0 0.00 0.00 0.00 0.00 0.00 13.36 54.38 0.00 0.00
09/09/2018 1,718 0 0.00 0.00 0.00 0.00 0.00 13.39 54.51 0.00 0.00
09/10/2018 1,697 0 0.00 0.00 0.00 0.00 0.00 13.38 54.46 0.00 0.00
09/11/2018 1,607 0 0.00 0.00 0.00 0.00 0.00 13.39 54.25 0.00 0.00
09/12/2018 1,522 0 0.00 0.00 0.00 0.00 0.00 13.39 54.05 0.00 0.00
09/13/2018 1,424 0 0.00 0.00 0.00 0.00 0.00 13.41 53.72 0.00 0.00
09/14/2018 1,369 0 0.00 0.00 0.00 0.00 0.00 13.40 53.52 0.00 0.00
09/15/2018 1,364 0 0.00 0.00 0.00 0.00 0.00 13.38 53.50 0.00 0.00
09/16/2018 1,624 0 0.00 0.00 0.00 0.00 0.00 13.36 54.29 0.00 0.00
09/17/2018 1,773 0 0.00 0.00 0.00 0.00 0.00 13.37 54.64 0.00 0.00
09/18/2018 1,476 0 0.00 0.00 0.00 0.00 0.00 13.38 53.91 0.00 0.00
09/19/2018 1,487 0 0.00 0.00 0.00 0.00 0.00 13.40 53.95 0.00 0.00
09/20/2018 1,474 0 0.00 0.00 0.00 0.00 0.00 13.43 53.90 0.00 0.00
09/21/2018 1,454 0 0.00 0.00 0.00 0.00 0.00 13.43 53.83 0.00 0.00
09/22/2018 1,427 0 0.00 0.00 0.00 0.00 0.00 13.40 53.73 0.00 0.00
09/23/2018 1,369 0 0.00 0.00 0.00 0.00 0.00 13.36 53.52 0.00 0.00
09/24/2018 1,353 4 0.00 0.00 0.07 0.00 0.00 13.39 53.46 0.00 0.00
09/25/2018 1,364 34 0.00 0.00 0.63 0.00 0.00 13.33 53.50 0.00 0.00
09/26/2018 1,364 45 0.00 0.00 0.85 0.00 0.00 13.43 53.50 0.00 0.00
09/27/2018 1,296 62 0.00 0.00 1.21 0.00 0.00 13.37 53.25 0.00 0.00
09/28/2018 1,227 82 0.00 0.00 1.65 0.00 0.00 13.36 53.00 0.00 0.00
09/29/2018 1,257 87 0.00 0.00 1.75 0.00 0.00 13.24 53.11 0.00 0.00
09/30/2018 1,315 89 0.00 0.00 1.73 0.00 0.00 13.32 53.32 0.00 0.00
Average 17 0.00 0.00
Maximum 89 0.00 0.00
Minimum 0 0.00 0.00
Total Volume (AF) 988 0.00 0.00